Time;durP1;ratioP1;P1;durP2;ratioP2;P2;SDS_P1;SDS_P2;PMS_P1;PMS_P2;Temp;Humidity;BMP_temperature;BMP_pressure;BME280_temperature;BME280_humidity;BME280_pressure;Samples;Min_cycle;Max_cycle;Signal;HPM_P1;HPM_P2
2022/10/21 00:02:20;;;;;;;8.30;5.00;;;11.90;99.90;;;;;;5111638;28;20183;-65
2022/10/21 00:04:46;;;;;;;13.20;6.20;;;11.90;99.90;;;;;;5112250;28;20561;-66
2022/10/21 00:07:11;;;;;;;14.13;6.23;;;11.90;99.90;;;;;;5112479;28;20186;-66
2022/10/21 00:09:37;;;;;;;10.83;5.67;;;11.90;99.90;;;;;;5112434;28;20188;-66
2022/10/21 00:12:03;;;;;;;9.60;5.57;;;11.90;99.90;;;;;;5111602;28;20263;-66
2022/10/21 00:14:29;;;;;;;11.10;5.17;;;11.90;99.90;;;;;;5111770;28;20505;-66
2022/10/21 00:16:55;;;;;;;9.60;4.80;;;11.90;99.90;;;;;;5112160;28;20187;-66
2022/10/21 00:19:20;;;;;;;10.23;4.70;;;11.90;99.90;;;;;;5112232;28;20422;-66
2022/10/21 00:21:46;;;;;;;10.43;4.60;;;11.90;99.90;;;;;;5110594;28;20655;-66
2022/10/21 00:24:12;;;;;;;18.23;6.13;;;11.90;99.90;;;;;;5112190;28;20210;-66
2022/10/21 00:26:37;;;;;;;17.00;6.13;;;11.90;99.90;;;;;;5106574;28;20181;-66
2022/10/21 00:29:03;;;;;;;10.50;5.50;;;11.90;99.90;;;;;;5110205;28;20187;-66
2022/10/21 00:31:29;;;;;;;10.67;5.70;;;11.80;99.90;;;;;;5112004;28;20690;-66
2022/10/21 00:33:55;;;;;;;8.73;5.40;;;11.90;99.90;;;;;;5112131;28;20245;-66
2022/10/21 00:36:20;;;;;;;11.93;6.90;;;11.90;99.90;;;;;;5112439;28;20452;-66
2022/10/21 00:38:47;;;;;;;8.53;5.43;;;12.00;99.90;;;;;;5115636;28;20184;-66
2022/10/21 00:41:14;;;;;;;14.23;5.60;;;12.20;99.90;;;;;;5116988;28;20227;-66
2022/10/21 00:44:01;;;;;;;11.77;5.50;;;12.00;99.90;;;;;;5114983;28;20448;-66
2022/10/21 00:46:41;;;;;;;8.43;4.77;;;12.10;99.90;;;;;;5116563;28;20429;-66
2022/10/21 00:49:15;;;;;;;7.77;5.10;;;12.10;99.90;;;;;;5116374;28;21020;-66
2022/10/21 00:51:44;;;;;;;8.70;4.60;;;12.00;99.90;;;;;;5116929;28;20416;-66
2022/10/21 00:54:09;;;;;;;7.97;4.70;;;12.10;99.90;;;;;;5116337;28;20437;-66
2022/10/21 00:56:36;;;;;;;7.60;4.57;;;12.10;99.90;;;;;;5116322;28;20429;-66
2022/10/21 00:59:05;;;;;;;9.00;5.40;;;12.00;99.90;;;;;;5116048;27;20637;-66
2022/10/21 01:01:31;;;;;;;6.00;3.63;;;12.10;99.90;;;;;;5115990;28;20503;-66
2022/10/21 01:03:56;;;;;;;9.10;4.47;;;12.10;99.90;;;;;;5116580;28;20622;-66
2022/10/21 01:06:24;;;;;;;7.33;4.20;;;12.00;99.90;;;;;;5118181;28;20180;-66
2022/10/21 01:08:53;;;;;;;9.77;4.03;;;12.00;99.90;;;;;;5117823;28;20616;-66
2022/10/21 01:11:20;;;;;;;7.40;4.80;;;12.00;99.90;;;;;;5118904;28;20421;-66
2022/10/21 01:14:13;;;;;;;15.03;5.70;;;12.10;99.90;;;;;;5125909;28;20417;-66
2022/10/21 01:17:01;;;;;;;6.10;3.80;;;12.00;99.90;;;;;;5129476;28;20436;-66
2022/10/21 01:19:45;;;;;;;7.80;4.70;;;12.00;99.90;;;;;;5141226;28;20410;-66
2022/10/21 01:22:35;;;;;;;13.50;5.83;;;12.00;99.90;;;;;;5141258;28;20429;-65
2022/10/21 01:25:35;;;;;;;9.70;5.67;;;12.00;99.90;;;;;;5142327;28;20437;-66
2022/10/21 01:28:43;;;;;;;7.63;5.03;;;12.00;99.90;;;;;;5142112;28;20401;-65
2022/10/21 01:31:24;;;;;;;8.47;4.90;;;12.00;99.90;;;;;;5089447;28;20921;-66
2022/10/21 01:34:02;;;;;;;11.47;5.47;;;12.00;99.90;;;;;;5116475;28;20482;-66
2022/10/21 01:36:42;;;;;;;8.43;5.33;;;12.00;99.90;;;;;;5115815;28;20413;-66
2022/10/21 01:39:47;;;;;;;7.60;4.80;;;12.10;99.90;;;;;;5108828;28;20417;-66
2022/10/21 01:42:27;;;;;;;12.37;5.87;;;12.10;99.90;;;;;;5114011;28;20421;-65
2022/10/21 01:45:04;;;;;;;12.03;6.50;;;12.10;99.90;;;;;;5101127;28;20470;-66
2022/10/21 01:47:38;;;;;;;17.00;8.10;;;12.20;99.90;;;;;;5114691;28;20409;-66
2022/10/21 01:50:15;;;;;;;17.67;8.30;;;12.20;99.90;;;;;;5112535;28;20485;-66
2022/10/21 01:52:46;;;;;;;15.40;6.80;;;12.40;99.90;;;;;;5112835;28;20460;-66
2022/10/21 01:55:16;;;;;;;11.83;6.47;;;12.40;99.90;;;;;;5114498;27;20453;-66
2022/10/21 01:57:45;;;;;;;11.67;6.17;;;12.50;99.90;;;;;;5113632;28;20429;-66
2022/10/21 02:00:11;;;;;;;11.67;6.60;;;12.50;99.90;;;;;;5113125;28;20932;-66
2022/10/21 02:02:42;;;;;;;11.60;5.87;;;12.50;99.90;;;;;;5114054;28;20428;-66
2022/10/21 02:05:25;;;;;;;25.57;7.10;;;12.50;99.90;;;;;;5114495;28;20703;-66
2022/10/21 02:07:50;;;;;;;23.13;6.17;;;12.50;99.90;;;;;;5114319;28;20508;-66
2022/10/21 02:10:17;;;;;;;12.23;5.80;;;12.40;99.90;;;;;;5114622;28;20493;-66
2022/10/21 02:12:46;;;;;;;13.27;6.40;;;12.40;99.90;;;;;;5109908;27;20234;-66
2022/10/21 02:15:15;;;;;;;10.10;5.93;;;12.40;99.90;;;;;;5104848;28;20463;-66
2022/10/21 02:17:48;;;;;;;8.40;5.27;;;12.40;99.90;;;;;;5113964;28;20421;-66
2022/10/21 02:20:15;;;;;;;10.83;6.60;;;12.40;99.90;;;;;;5114400;28;20418;-66
2022/10/21 02:22:44;;;;;;;11.87;6.07;;;12.40;99.90;;;;;;5112874;28;20850;-66
2022/10/21 02:25:20;;;;;;;12.53;6.53;;;12.40;99.90;;;;;;5114213;28;20477;-66
2022/10/21 02:27:46;;;;;;;12.00;6.03;;;12.40;99.90;;;;;;5106328;28;20419;-66
2022/10/21 02:30:12;;;;;;;17.10;5.97;;;12.40;99.90;;;;;;5113929;28;20414;-66
2022/10/21 02:32:47;;;;;;;13.37;6.50;;;12.50;99.90;;;;;;5114658;28;20449;-67
2022/10/21 02:35:24;;;;;;;13.43;6.70;;;12.40;99.90;;;;;;5113162;28;20651;-67
2022/10/21 02:37:59;;;;;;;15.60;6.77;;;12.40;99.90;;;;;;5115077;28;20913;-67
2022/10/21 02:40:49;;;;;;;19.90;7.80;;;12.40;99.90;;;;;;5115734;28;20425;-67
2022/10/21 02:43:29;;;;;;;10.70;6.50;;;12.40;99.90;;;;;;5115476;28;20485;-67
2022/10/21 02:46:00;;;;;;;20.77;7.80;;;12.50;99.90;;;;;;5118869;28;20953;-67
2022/10/21 02:48:26;;;;;;;12.43;6.90;;;12.40;99.90;;;;;;5132871;28;20496;-67
2022/10/21 02:50:52;;;;;;;16.90;7.60;;;12.40;99.90;;;;;;5138784;28;20413;-67
2022/10/21 02:53:17;;;;;;;17.00;7.20;;;12.50;99.90;;;;;;5125588;28;20175;-67
2022/10/21 02:55:43;;;;;;;14.53;8.00;;;12.50;99.90;;;;;;5140440;28;20163;-67
2022/10/21 02:58:09;;;;;;;12.73;8.03;;;12.50;99.90;;;;;;5140091;28;20208;-67
2022/10/21 03:00:35;;;;;;;14.20;6.83;;;12.50;99.90;;;;;;5119605;28;20220;-67
2022/10/21 03:03:01;;;;;;;13.40;6.47;;;12.60;99.90;;;;;;5114909;28;20410;-67
2022/10/21 03:05:26;;;;;;;9.10;6.13;;;12.50;99.90;;;;;;5113912;28;20691;-67
2022/10/21 03:07:52;;;;;;;17.00;7.50;;;12.50;99.90;;;;;;5099796;28;20179;-67
2022/10/21 03:10:17;;;;;;;12.43;6.20;;;12.40;99.90;;;;;;5113300;28;20610;-67
2022/10/21 03:12:43;;;;;;;18.90;6.47;;;12.50;99.90;;;;;;5098455;28;20204;-68
2022/10/21 03:15:09;;;;;;;17.73;5.87;;;12.50;99.90;;;;;;5113160;27;20534;-67
2022/10/21 03:17:35;;;;;;;14.30;6.83;;;12.60;99.90;;;;;;5112816;28;20688;-67
2022/10/21 03:20:00;;;;;;;12.43;6.07;;;12.60;99.90;;;;;;5108960;28;20430;-67
2022/10/21 03:22:26;;;;;;;10.10;5.40;;;12.60;99.90;;;;;;5108807;28;20664;-67
2022/10/21 03:24:51;;;;;;;18.17;6.20;;;12.70;99.90;;;;;;5112972;28;20197;-67
2022/10/21 03:27:17;;;;;;;9.73;6.13;;;12.90;99.90;;;;;;5105033;28;20550;-67
2022/10/21 03:29:43;;;;;;;19.57;5.77;;;13.00;99.90;;;;;;5112963;28;20262;-67
2022/10/21 03:32:08;;;;;;;8.90;4.20;;;13.20;99.90;;;;;;5112509;28;20774;-67
2022/10/21 03:34:34;;;;;;;14.60;4.63;;;13.30;99.90;;;;;;5112770;28;20180;-67
2022/10/21 03:36:59;;;;;;;5.57;2.83;;;13.40;99.90;;;;;;5112419;28;20191;-67
2022/10/21 03:39:25;;;;;;;8.90;3.73;;;13.40;99.90;;;;;;5112404;28;20678;-67
2022/10/21 03:41:50;;;;;;;11.13;4.17;;;13.50;99.90;;;;;;5111766;28;20179;-67
2022/10/21 03:44:16;;;;;;;21.57;4.40;;;13.50;99.90;;;;;;5112408;28;20560;-67
2022/10/21 03:46:41;;;;;;;12.80;4.30;;;13.50;99.90;;;;;;5112325;28;20277;-67
2022/10/21 03:49:09;;;;;;;7.10;3.30;;;13.60;99.90;;;;;;5112404;28;20175;-68
2022/10/21 03:51:34;;;;;;;16.10;5.57;;;13.60;99.90;;;;;;5096764;28;20190;-67
2022/10/21 03:54:00;;;;;;;9.37;5.00;;;13.60;99.90;;;;;;5112331;28;20913;-67
2022/10/21 03:56:25;;;;;;;7.90;4.33;;;13.70;99.90;;;;;;5112700;28;20190;-67
2022/10/21 03:58:51;;;;;;;11.77;3.20;;;13.60;99.90;;;;;;5111849;28;20191;-67
2022/10/21 04:01:17;;;;;;;11.73;3.33;;;13.70;99.90;;;;;;5112459;28;20201;-67
2022/10/21 04:03:42;;;;;;;7.30;3.30;;;13.70;99.90;;;;;;5111814;28;20219;-67
2022/10/21 04:06:08;;;;;;;5.57;2.93;;;13.70;99.90;;;;;;5112707;28;20186;-67
2022/10/21 04:08:33;;;;;;;13.33;3.13;;;13.70;99.90;;;;;;5112077;28;20504;-67
2022/10/21 04:10:59;;;;;;;6.80;2.97;;;13.70;99.90;;;;;;5104138;28;20190;-68
2022/10/21 04:13:25;;;;;;;5.40;2.70;;;13.80;99.90;;;;;;5114255;28;20259;-67
2022/10/21 04:15:55;;;;;;;12.80;3.73;;;13.80;99.90;;;;;;5116511;28;20236;-67
2022/10/21 04:18:21;;;;;;;12.40;4.13;;;13.70;99.90;;;;;;5116364;28;20182;-67
2022/10/21 04:20:46;;;;;;;8.23;4.67;;;13.70;99.90;;;;;;5115518;27;20797;-67
2022/10/21 04:23:12;;;;;;;11.13;4.37;;;13.60;99.90;;;;;;5115690;28;20202;-67
2022/10/21 04:25:37;;;;;;;7.50;3.70;;;13.60;99.90;;;;;;5116304;28;20187;-67
2022/10/21 04:28:03;;;;;;;7.70;3.03;;;13.70;99.90;;;;;;5098389;28;20187;-67
2022/10/21 04:30:29;;;;;;;6.93;3.20;;;13.60;99.90;;;;;;5113046;28;20179;-67
2022/10/21 04:32:54;;;;;;;16.50;3.50;;;13.70;99.90;;;;;;5115757;28;20567;-67
2022/10/21 04:35:20;;;;;;;17.57;3.00;;;13.80;99.90;;;;;;5115856;28;20184;-68
2022/10/21 04:37:45;;;;;;;7.00;2.90;;;13.90;99.90;;;;;;5116066;28;20635;-68
2022/10/21 04:40:11;;;;;;;7.20;2.97;;;13.90;99.90;;;;;;5116014;28;20215;-68
2022/10/21 04:42:36;;;;;;;7.03;3.07;;;13.90;99.90;;;;;;5115036;28;20638;-68
2022/10/21 04:45:02;;;;;;;6.07;3.10;;;13.90;99.90;;;;;;5115869;28;20218;-68
2022/10/21 04:47:28;;;;;;;9.03;4.20;;;13.90;99.90;;;;;;5116065;28;20641;-68
2022/10/21 04:49:53;;;;;;;21.57;4.33;;;14.00;99.90;;;;;;5115954;28;20172;-68
2022/10/21 04:52:19;;;;;;;8.27;3.47;;;14.00;99.90;;;;;;5116004;28;20526;-68
2022/10/21 04:54:45;;;;;;;13.70;4.07;;;14.00;99.90;;;;;;5116201;28;20217;-68
2022/10/21 04:57:12;;;;;;;3.67;2.53;;;14.00;99.90;;;;;;5115273;28;20215;-68
2022/10/21 04:59:37;;;;;;;4.50;2.40;;;14.00;99.90;;;;;;5115129;28;20176;-68
2022/10/21 05:02:03;;;;;;;10.33;3.40;;;14.00;99.90;;;;;;5115248;28;20420;-68
2022/10/21 05:04:29;;;;;;;25.33;4.10;;;14.20;99.90;;;;;;5115254;28;20301;-65
2022/10/21 05:06:54;;;;;;;9.77;4.17;;;14.00;99.90;;;;;;5115510;28;20180;-66
2022/10/21 05:09:20;;;;;;;13.63;4.33;;;14.00;99.90;;;;;;5115289;28;20214;-66
2022/10/21 05:11:45;;;;;;;10.20;3.93;;;14.30;99.90;;;;;;5114094;28;20256;-66
2022/10/21 05:14:11;;;;;;;11.27;3.23;;;14.20;99.90;;;;;;5114896;28;20684;-66
2022/10/21 05:16:36;;;;;;;11.80;3.90;;;14.00;99.90;;;;;;5115508;28;20180;-66
2022/10/21 05:19:02;;;;;;;4.33;2.53;;;14.10;99.90;;;;;;5115241;28;20239;-66
2022/10/21 05:21:27;;;;;;;5.13;2.50;;;14.00;99.90;;;;;;5114106;28;20534;-66
2022/10/21 05:23:53;;;;;;;11.57;3.77;;;14.10;99.90;;;;;;5114038;27;20283;-67
2022/10/21 05:26:19;;;;;;;5.57;3.07;;;14.10;99.90;;;;;;5114618;28;20176;-67
2022/10/21 05:28:44;;;;;;;6.50;2.30;;;14.10;99.90;;;;;;5114988;28;20230;-67
2022/10/21 05:31:10;;;;;;;10.23;3.23;;;14.00;99.90;;;;;;5115477;28;20180;-66
2022/10/21 05:33:35;;;;;;;4.00;2.60;;;14.20;99.90;;;;;;5114321;28;20328;-66
2022/10/21 05:36:06;;;;;;;6.50;2.97;;;14.00;99.90;;;;;;5114642;28;20545;-66
2022/10/21 05:38:33;;;;;;;4.90;2.97;;;14.00;99.90;;;;;;5114777;28;20730;-67
2022/10/21 05:40:58;;;;;;;7.67;2.80;;;14.00;99.90;;;;;;5114952;28;20421;-66
2022/10/21 05:43:26;;;;;;;6.83;2.20;;;13.90;99.90;;;;;;5113356;28;20424;-67
2022/10/21 05:45:52;;;;;;;14.87;3.27;;;13.90;99.90;;;;;;5114413;28;20188;-67
2022/10/21 05:48:18;;;;;;;6.00;3.00;;;13.90;99.90;;;;;;5114203;28;20443;-68
2022/10/21 05:50:45;;;;;;;9.13;1.93;;;13.90;99.90;;;;;;5112502;28;20178;-67
2022/10/21 05:53:12;;;;;;;6.80;3.43;;;13.90;99.90;;;;;;5114106;28;20785;-67
2022/10/21 05:55:38;;;;;;;14.63;3.57;;;13.80;99.90;;;;;;5114461;28;20421;-68
2022/10/21 05:58:03;;;;;;;9.47;2.60;;;13.80;99.90;;;;;;5113508;28;20833;-67
2022/10/21 06:00:29;;;;;;;7.43;3.40;;;13.80;99.90;;;;;;5114400;28;20209;-67
2022/10/21 06:02:54;;;;;;;6.87;2.77;;;14.10;99.90;;;;;;5120182;27;20192;-68
2022/10/21 06:05:20;;;;;;;7.77;2.57;;;14.40;99.90;;;;;;5114246;28;20711;-68
2022/10/21 06:07:46;;;;;;;14.70;3.03;;;13.90;99.90;;;;;;5114003;28;20183;-68
2022/10/21 06:10:12;;;;;;;17.17;3.77;;;13.70;99.90;;;;;;5114284;28;20179;-68
2022/10/21 06:12:38;;;;;;;6.57;3.50;;;13.70;99.90;;;;;;5113209;28;20889;-67
2022/10/21 06:15:04;;;;;;;8.07;3.40;;;14.20;99.90;;;;;;5113916;28;20180;-67
2022/10/21 06:17:30;;;;;;;11.20;4.37;;;13.70;99.90;;;;;;5114137;28;20470;-67
2022/10/21 06:19:56;;;;;;;31.03;4.03;;;13.80;99.90;;;;;;5102556;28;20448;-67
2022/10/21 06:22:21;;;;;;;5.67;3.13;;;14.20;99.90;;;;;;5107365;28;20202;-67
2022/10/21 06:24:48;;;;;;;6.93;3.20;;;14.50;99.90;;;;;;5112175;28;20678;-67
2022/10/21 06:27:14;;;;;;;11.00;4.47;;;13.80;99.90;;;;;;5108167;28;20599;-67
2022/10/21 06:29:39;;;;;;;9.73;3.70;;;14.10;99.90;;;;;;5113239;28;20445;-67
2022/10/21 06:32:05;;;;;;;7.80;3.73;;;13.80;99.90;;;;;;5112814;28;20627;-67
2022/10/21 06:34:30;;;;;;;9.40;3.73;;;13.80;99.90;;;;;;5106948;28;20205;-67
2022/10/21 06:36:56;;;;;;;7.50;3.40;;;13.80;99.90;;;;;;5113273;28;20324;-67
2022/10/21 06:39:22;;;;;;;4.87;2.50;;;13.80;99.90;;;;;;5113211;28;20180;-67
2022/10/21 06:41:47;;;;;;;4.50;2.80;;;13.80;99.90;;;;;;5117526;27;20204;-67
2022/10/21 06:44:13;;;;;;;6.17;3.13;;;13.80;99.90;;;;;;5111189;28;20222;-67
2022/10/21 06:46:38;;;;;;;6.67;3.30;;;13.80;99.90;;;;;;5113998;27;20180;-67
2022/10/21 06:49:04;;;;;;;9.33;3.97;;;13.80;99.90;;;;;;5114241;27;20296;-68
2022/10/21 06:51:29;;;;;;;8.17;3.20;;;13.90;99.90;;;;;;5111558;28;20187;-68
2022/10/21 06:53:58;;;;;;;13.47;4.33;;;13.80;99.90;;;;;;5111736;28;20184;-68
2022/10/21 06:56:24;;;;;;;18.83;4.67;;;13.80;99.90;;;;;;5112391;27;20206;-68
2022/10/21 06:58:51;;;;;;;4.37;2.57;;;14.40;99.90;;;;;;5111393;28;20453;-68
2022/10/21 07:01:18;;;;;;;13.90;3.60;;;14.70;99.90;;;;;;5112436;28;20421;-69
2022/10/21 07:03:44;;;;;;;6.17;3.10;;;14.60;99.90;;;;;;5110633;28;20968;-68
2022/10/21 07:06:10;;;;;;;21.57;5.07;;;13.80;99.90;;;;;;5112437;28;20417;-68
2022/10/21 07:08:36;;;;;;;10.13;4.10;;;13.80;99.90;;;;;;5111529;28;20184;-68
2022/10/21 07:11:02;;;;;;;9.70;3.53;;;14.50;99.90;;;;;;5111422;28;20271;-68
2022/10/21 07:13:28;;;;;;;21.97;3.87;;;13.80;99.90;;;;;;5111098;28;20457;-68
2022/10/21 07:16:19;;;;;;;9.70;3.93;;;13.90;99.90;;;;;;5112429;28;20425;-68
2022/10/21 07:18:45;;;;;;;6.67;2.60;;;13.90;99.90;;;;;;5112172;28;20417;-69
2022/10/21 07:21:15;;;;;;;6.13;2.77;;;13.90;99.90;;;;;;5101768;28;20433;-69
2022/10/21 07:23:40;;;;;;;5.77;2.40;;;13.90;99.90;;;;;;5107259;28;20684;-69
2022/10/21 07:26:07;;;;;;;4.23;2.30;;;14.00;99.90;;;;;;5111318;28;20500;-67
2022/10/21 07:28:34;;;;;;;12.83;2.30;;;13.90;99.90;;;;;;5102293;28;20184;-68
2022/10/21 07:30:59;;;;;;;6.90;2.80;;;14.10;99.90;;;;;;5111663;28;20417;-69
2022/10/21 07:33:25;;;;;;;12.93;2.60;;;14.00;99.90;;;;;;5110224;28;20424;-68
2022/10/21 07:35:51;;;;;;;2.90;1.73;;;14.60;99.90;;;;;;5112016;28;20623;-69
2022/10/21 07:38:17;;;;;;;4.30;2.60;;;14.00;99.90;;;;;;5111349;28;20603;-69
2022/10/21 07:40:43;;;;;;;5.60;2.50;;;14.00;99.90;;;;;;5109543;28;20441;-69
2022/10/21 07:43:09;;;;;;;5.60;2.90;;;14.00;99.90;;;;;;5108239;28;20180;-69
2022/10/21 07:45:41;;;;;;;18.83;3.60;;;14.00;99.90;;;;;;5109377;28;20465;-70
2022/10/21 07:48:08;;;;;;;6.40;2.90;;;14.00;99.90;;;;;;5109341;28;20441;-71
2022/10/21 07:50:35;;;;;;;6.27;2.67;;;14.60;99.90;;;;;;5108225;28;20421;-69
2022/10/21 07:53:01;;;;;;;8.43;4.23;;;14.40;99.90;;;;;;5108567;28;20472;-69
2022/10/21 07:55:27;;;;;;;14.27;3.23;;;14.00;99.90;;;;;;5109529;28;20433;-68
2022/10/21 07:57:53;;;;;;;5.03;2.63;;;14.00;99.90;;;;;;5108877;28;20508;-68
2022/10/21 08:00:18;;;;;;;8.63;2.90;;;14.00;99.90;;;;;;5109083;28;20520;-68
2022/10/21 08:02:44;;;;;;;5.20;2.60;;;14.70;99.90;;;;;;5109070;28;20196;-68
2022/10/21 08:05:10;;;;;;;8.43;3.20;;;14.10;99.90;;;;;;5110060;28;20215;-68
2022/10/21 08:07:35;;;;;;;7.97;2.57;;;14.10;99.90;;;;;;5108860;28;20567;-68
2022/10/21 08:10:01;;;;;;;4.80;2.20;;;14.10;99.90;;;;;;5106226;28;20301;-69
2022/10/21 08:12:27;;;;;;;6.43;3.00;;;14.10;99.90;;;;;;5105082;28;20180;-68
2022/10/21 08:14:52;;;;;;;9.70;3.03;;;14.10;99.90;;;;;;5108973;28;20222;-68
2022/10/21 08:17:18;;;;;;;14.13;3.00;;;14.10;99.90;;;;;;5107837;28;20192;-69
2022/10/21 08:19:45;;;;;;;7.50;2.87;;;14.50;99.90;;;;;;5107234;28;20180;-69
2022/10/21 08:22:11;;;;;;;9.83;4.13;;;14.10;99.90;;;;;;5107817;28;20198;-68
2022/10/21 08:24:36;;;;;;;5.10;2.60;;;14.10;99.90;;;;;;5108933;28;20489;-68
2022/10/21 08:27:04;;;;;;;15.23;3.03;;;14.20;99.90;;;;;;5107772;28;20270;-68
2022/10/21 08:29:29;;;;;;;4.60;2.63;;;14.10;99.90;;;;;;5109252;28;20195;-68
2022/10/21 08:31:55;;;;;;;5.83;2.63;;;14.00;99.90;;;;;;5108305;28;20422;-69
2022/10/21 08:34:21;;;;;;;7.43;2.33;;;14.00;99.90;;;;;;5109147;28;20297;-69
2022/10/21 08:36:47;;;;;;;5.23;3.33;;;14.00;99.90;;;;;;5109448;28;20232;-69
2022/10/21 08:39:12;;;;;;;7.47;3.13;;;14.00;99.90;;;;;;5108920;28;20944;-70
2022/10/21 08:42:09;;;;;;;10.63;3.43;;;14.00;99.90;;;;;;5106921;28;20191;-69
2022/10/21 08:44:59;;;;;;;2.67;2.10;;;14.00;99.90;;;;;;5108448;28;20219;-69
2022/10/21 08:47:46;;;;;;;10.47;3.60;;;14.00;99.90;;;;;;5109163;28;20449;-69
2022/10/21 08:50:15;;;;;;;11.77;3.63;;;14.20;99.90;;;;;;5108620;28;21236;-69
2022/10/21 08:52:51;;;;;;;6.03;2.77;;;14.00;99.90;;;;;;5108345;28;20512;-69
2022/10/21 08:55:34;;;;;;;7.10;2.90;;;14.00;99.90;;;;;;5107392;28;20526;-69
2022/10/21 08:58:00;;;;;;;3.67;2.57;;;14.00;99.90;;;;;;5108580;28;20430;-69
2022/10/21 09:00:55;;;;;;;17.13;3.90;;;14.10;99.90;;;;;;5110347;28;20447;-68
2022/10/21 09:04:19;;;;;;;8.10;3.07;;;14.10;99.90;;;;;;5038527;28;20436;-68
2022/10/21 09:07:29;;;;;;;6.43;2.40;;;14.20;99.90;;;;;;5078417;28;20442;-69
2022/10/21 09:09:57;;;;;;;4.40;2.63;;;14.20;99.90;;;;;;5095366;28;20969;-68
2022/10/21 09:13:03;;;;;;;5.03;2.30;;;14.30;99.90;;;;;;5110645;28;20547;-67
2022/10/21 09:15:52;;;;;;;9.37;2.30;;;14.30;99.90;;;;;;5100475;28;20437;-69
2022/10/21 09:18:59;;;;;;;3.80;2.07;;;14.30;99.90;;;;;;5109232;28;20946;-69
2022/10/21 09:21:40;;;;;;;3.40;1.60;;;14.30;99.90;;;;;;5083425;28;20441;-69
2022/10/21 09:24:33;;;;;;;6.17;1.83;;;14.40;99.90;;;;;;5108728;28;20472;-69
2022/10/21 09:27:01;;;;;;;6.17;1.80;;;14.40;99.90;;;;;;5105543;28;20425;-70
2022/10/21 09:29:32;;;;;;;3.10;1.17;;;14.40;99.90;;;;;;5109563;28;20426;-69
2022/10/21 09:32:04;;;;;;;6.23;1.70;;;14.40;99.90;;;;;;5109850;28;20431;-69
2022/10/21 09:34:41;;;;;;;5.63;2.33;;;14.60;99.90;;;;;;5108990;28;20426;-69
2022/10/21 09:37:23;;;;;;;3.90;1.50;;;14.40;99.90;;;;;;5110940;28;20425;-68
2022/10/21 09:39:56;;;;;;;4.77;1.63;;;14.40;99.90;;;;;;5109097;28;20453;-69
2022/10/21 09:42:22;;;;;;;9.63;1.53;;;14.40;99.90;;;;;;5110763;27;20455;-68
2022/10/21 09:44:48;;;;;;;4.20;1.70;;;14.50;99.90;;;;;;5112753;28;20461;-68
2022/10/21 09:47:19;;;;;;;2.97;1.30;;;15.20;99.90;;;;;;5112964;28;20922;-68
2022/10/21 09:49:56;;;;;;;4.30;2.00;;;14.60;99.90;;;;;;5112472;28;20217;-68
2022/10/21 09:52:27;;;;;;;5.37;2.10;;;14.50;99.90;;;;;;5109742;28;20484;-67
2022/10/21 09:54:52;;;;;;;6.43;1.87;;;14.50;99.90;;;;;;5112082;28;20426;-68
2022/10/21 09:57:35;;;;;;;7.70;2.10;;;14.50;99.90;;;;;;5111639;28;20463;-68
2022/10/21 10:00:03;;;;;;;4.50;1.40;;;14.60;99.90;;;;;;5110860;28;20192;-68
2022/10/21 10:02:36;;;;;;;2.43;1.80;;;14.60;99.90;;;;;;5108839;28;20421;-69
2022/10/21 10:05:37;;;;;;;3.40;2.13;;;15.10;99.90;;;;;;5108693;28;20480;-68
2022/10/21 10:08:36;;;;;;;6.97;2.40;;;14.60;99.90;;;;;;5110842;28;20457;-68
2022/10/21 10:11:07;;;;;;;5.73;2.07;;;14.60;99.90;;;;;;5106961;28;20473;-69
2022/10/21 10:13:38;;;;;;;4.03;2.20;;;14.60;99.90;;;;;;5108825;28;20421;-68
2022/10/21 10:16:13;;;;;;;3.20;1.53;;;14.90;99.90;;;;;;5111639;28;20418;-68
2022/10/21 10:18:39;;;;;;;6.33;2.67;;;14.60;99.90;;;;;;5110913;28;20445;-68
2022/10/21 10:21:09;;;;;;;10.03;2.40;;;14.70;99.90;;;;;;5107873;28;20421;-68
2022/10/21 10:24:02;;;;;;;6.57;1.80;;;14.70;99.90;;;;;;5109615;28;20420;-68
2022/10/21 10:26:37;;;;;;;5.63;2.40;;;14.80;99.90;;;;;;5107435;28;20801;-68
2022/10/21 10:29:08;;;;;;;4.20;1.90;;;14.80;99.90;;;;;;5110137;28;20436;-68
2022/10/21 10:31:35;;;;;;;12.63;2.37;;;14.90;99.90;;;;;;5109876;28;20433;-68
2022/10/21 10:34:06;;;;;;;4.13;2.23;;;15.70;99.90;;;;;;5109926;28;20440;-68
2022/10/21 10:36:38;;;;;;;2.80;1.67;;;15.40;99.90;;;;;;5110388;28;20421;-68
2022/10/21 10:39:14;;;;;;;2.73;1.50;;;14.90;99.90;;;;;;5109211;28;20421;-68
2022/10/21 10:41:46;;;;;;;6.60;2.10;;;14.90;99.90;;;;;;5106890;28;20436;-68
2022/10/21 10:44:30;;;;;;;5.93;1.63;;;15.00;99.90;;;;;;5109807;28;20480;-68
2022/10/21 10:46:59;;;;;;;3.77;1.70;;;15.00;99.90;;;;;;5108877;28;20422;-69
2022/10/21 10:49:25;;;;;;;1.80;0.87;;;15.00;99.90;;;;;;5106894;28;20436;-68
2022/10/21 10:52:20;;;;;;;8.17;2.83;;;15.00;99.90;;;;;;5109916;28;20448;-68
2022/10/21 10:54:46;;;;;;;4.33;1.70;;;15.00;99.90;;;;;;5101414;28;20445;-68
2022/10/21 10:57:13;;;;;;;4.10;1.60;;;15.20;99.90;;;;;;5109793;28;20570;-68
2022/10/21 11:00:15;;;;;;;4.17;1.70;;;15.10;99.90;;;;;;5110542;28;20430;-68
2022/10/21 11:02:54;;;;;;;4.03;1.87;;;15.20;99.90;;;;;;5025859;28;20972;-68
2022/10/21 11:05:28;;;;;;;2.13;1.50;;;15.30;99.90;;;;;;5100631;28;20495;-68
2022/10/21 11:07:59;;;;;;;9.93;2.10;;;15.30;99.90;;;;;;5110296;28;20424;-68
2022/10/21 11:10:33;;;;;;;3.70;1.90;;;15.40;99.90;;;;;;5110363;28;20418;-67
2022/10/21 11:13:02;;;;;;;2.97;1.60;;;15.50;99.90;;;;;;5108527;28;20497;-67
2022/10/21 11:15:48;;;;;;;11.80;2.07;;;15.60;99.90;;;;;;5109616;28;20483;-68
2022/10/21 11:18:33;;;;;;;3.70;1.80;;;15.70;99.90;;;;;;5108674;28;20750;-68
2022/10/21 11:21:15;;;;;;;2.00;0.77;;;15.70;99.90;;;;;;5108170;28;20508;-68
2022/10/21 11:24:01;;;;;;;3.97;1.43;;;15.70;99.90;;;;;;5108526;27;20462;-69
2022/10/21 11:26:27;;;;;;;1.57;0.70;;;15.80;99.90;;;;;;5109122;27;20424;-67
2022/10/21 11:29:14;;;;;;;2.17;1.00;;;15.80;99.90;;;;;;5109878;27;20416;-69
2022/10/21 11:31:58;;;;;;;4.90;1.33;;;15.90;99.90;;;;;;5108963;28;20191;-68
2022/10/21 11:34:39;;;;;;;2.97;1.00;;;16.00;99.90;;;;;;5109120;28;20924;-68
2022/10/21 11:37:32;;;;;;;1.43;0.77;;;16.10;99.90;;;;;;5109744;28;20433;-68
2022/10/21 11:40:10;;;;;;;2.20;1.10;;;16.30;99.90;;;;;;5109527;28;20457;-67
2022/10/21 11:42:43;;;;;;;1.50;0.80;;;16.30;99.90;;;;;;5107695;28;20417;-68
2022/10/21 11:45:20;;;;;;;5.23;1.10;;;16.40;99.90;;;;;;5108362;28;20465;-67
2022/10/21 11:48:30;;;;;;;2.23;0.80;;;16.40;99.90;;;;;;5109716;28;20417;-67
2022/10/21 11:51:20;;;;;;;3.73;1.00;;;16.40;99.90;;;;;;5100040;28;20994;-67
2022/10/21 11:54:03;;;;;;;2.50;0.73;;;16.30;99.90;;;;;;5107884;28;20433;-65
2022/10/21 11:57:05;;;;;;;2.17;0.73;;;16.20;99.90;;;;;;5108984;28;20429;-67
2022/10/21 11:59:50;;;;;;;1.93;0.90;;;16.10;99.90;;;;;;5108885;28;20428;-68
2022/10/21 12:02:20;;;;;;;1.93;1.00;;;15.90;99.90;;;;;;5109423;28;20410;-67
2022/10/21 12:05:01;;;;;;;2.90;1.03;;;16.50;99.90;;;;;;5108925;28;20468;-67
2022/10/21 12:07:50;;;;;;;2.80;1.10;;;15.80;99.90;;;;;;5107370;28;20409;-67
2022/10/21 12:10:41;;;;;;;1.50;0.60;;;15.90;99.90;;;;;;5107483;28;20446;-67
2022/10/21 12:13:24;;;;;;;2.57;0.90;;;15.90;99.90;;;;;;5108389;28;20892;-67
2022/10/21 12:16:14;;;;;;;2.23;0.80;;;15.90;99.90;;;;;;5107604;28;20428;-67
2022/10/21 12:19:05;;;;;;;1.30;0.63;;;16.00;99.90;;;;;;5108780;28;20796;-67
2022/10/21 12:21:38;;;;;;;2.57;1.13;;;16.00;99.90;;;;;;5107692;28;20524;-67
2022/10/21 12:24:20;;;;;;;1.30;0.50;;;16.00;99.90;;;;;;5108481;28;20480;-67
2022/10/21 12:26:58;;;;;;;5.10;1.17;;;16.10;99.90;;;;;;5108476;28;21138;-67
2022/10/21 12:29:58;;;;;;;2.00;0.87;;;16.10;99.90;;;;;;5105513;28;20441;-67
2022/10/21 12:32:46;;;;;;;1.80;1.03;;;16.20;99.90;;;;;;5104556;28;20429;-67
2022/10/21 12:35:20;;;;;;;1.60;0.70;;;16.10;99.90;;;;;;5111731;28;20417;-67
2022/10/21 12:37:51;;;;;;;2.33;1.00;;;16.20;99.90;;;;;;5110797;28;20990;-68
2022/10/21 12:40:36;;;;;;;1.90;0.90;;;16.20;99.90;;;;;;5107048;28;20510;-66
2022/10/21 12:43:21;;;;;;;1.60;0.73;;;16.10;99.90;;;;;;5111380;27;20409;-67
2022/10/21 12:46:00;;;;;;;1.83;0.70;;;16.00;99.90;;;;;;5111258;27;20484;-67
2022/10/21 12:48:28;;;;;;;2.23;0.60;;;15.80;99.90;;;;;;5110960;27;20901;-67
2022/10/21 12:50:57;;;;;;;1.50;0.60;;;15.80;99.90;;;;;;5113525;28;20426;-67
2022/10/21 12:53:31;;;;;;;1.70;0.90;;;15.90;99.90;;;;;;5111919;27;20463;-68
2022/10/21 12:55:58;;;;;;;2.60;1.00;;;15.90;99.90;;;;;;5111224;28;20459;-68
2022/10/21 12:58:30;;;;;;;2.60;1.23;;;16.00;99.90;;;;;;5110933;27;20422;-68
2022/10/21 13:00:57;;;;;;;2.17;0.97;;;16.00;99.90;;;;;;5112624;28;20450;-67
2022/10/21 13:03:45;;;;;;;2.83;1.00;;;16.10;99.90;;;;;;5110214;28;20786;-68
2022/10/21 13:06:11;;;;;;;1.50;0.83;;;16.00;99.90;;;;;;5107009;28;20436;-67
2022/10/21 13:08:51;;;;;;;2.13;0.73;;;16.00;99.90;;;;;;5110568;28;20453;-67